Sanikiluaq Airport
CYSK : now visible

Airfield :











YOU CAN JOIN US ON...

 
LOGIN :

Register | Disclaimer

   EN    FR    IT 

 









Legend :    VFR   Marginal VFR   IFR   Intensive IFR   Very Intensive IFR
Visi :
Ceiling :
>= 8 km
>= 3000ft
5 to 8 km
1000 to 3000 ft
1500m to 5 km
500 to 1000 ft
800 to 1500m
200 to 500 ft
< 800m
< 200 ft
Symbols :   Thunderstorms  Fog  Heavy snow  Heavy precipitations  Wind > 20 kt






- Airport Elevation : 104 ft
- IATA code : YSK


CYSK - Sanikiluaq

CURRENT METAR :
  • 071400Z 20009KT 15SM BKN070 BKN220 17/12 A2973 RMK AC5CS2 SLP069 DENSITY ALT 600FT

EXPIRED METARs :
  • 071300Z 21015KT 15SM BKN140 BKN220 16/12 A2973 RMK AC5CS2 SLP071 DENSITY ALT 500FT
  • 071200Z 19012KT 15SM BKN040 BKN220 15/12 A2973 RMK SC5CS2 SLP071 DENSITY ALT 400FT

TAF N/A
CZUL FIR / North America



MET'MAP, your aeronautical weather chart ! - Copyright ORBIFLY December 2007 - Disclaimer

ORBIFLY MET'MAP TEAM :

Programming & Development : Alexandra Zaïnal
Concept & original design : Baudouin d'Aumeries
Assistance for programming : Marc-Olivier Méhu
Technical & hardware support : Manuel Goepfert

Contact : metmap@orbifly.com




SOURCES & CREDITS :

   NOAA       Earth
Advisory